62MI weather

Public forecast

Using degrees Fahrenheit for public forecast. Weather courtesy of forecast.io.

Closest aviation weather report (METAR) to Mercy Health Heliport

Closest report is Fremont Municipal Airport, 19.0 nm (35.2 km) ESE. Retrieved 2020/08/10 08:15 UTC (0 seconds ago):

KFFX 100815Z AUTO 21003KT 10SM SCT038 SCT046 SCT070 21/19 A2995 RMK AO2 T02070191

Closest aviation forecast (TAF) to Mercy Health Heliport

Closest forecast is Muskegon County Airport, 26.8 nm (49.7 km) SSE. Retrieved 2020/08/10 06:33 UTC (2 hours ago):

TAF KMKG 100530Z 1006/1106 20008KT P6SM SCT050 FM101200 19012KT P6SM BKN025 FM101700 22012G22KT P6SM OVC025 FM102100 22010G18KT P6SM VCTS BKN060CB